Time;durP1;ratioP1;P1;durP2;ratioP2;P2;SDS_P1;SDS_P2;PMS_P1;PMS_P2;Temp;Humidity;BMP_temperature;BMP_pressure;BME280_temperature;BME280_humidity;BME280_pressure;Samples;Min_cycle;Max_cycle;Signal;HPM_P1;HPM_P2
2022/02/02 06:56:07;;;;;;;15.32;3.50;;;;;;;4.51;100.00;98992.78;5068471;27;20421;-84
2022/02/02 06:58:44;;;;;;;17.83;3.33;;;;;;;4.79;100.00;99007.06;5067806;28;20056;-83
2022/02/02 07:01:27;;;;;;;18.20;4.43;;;;;;;5.01;100.00;99029.16;5067250;28;20094;-84
2022/02/02 07:04:02;;;;;;;12.32;3.10;;;;;;;5.01;100.00;99006.78;5060602;28;20048;-84
2022/02/02 07:06:43;;;;;;;15.68;3.38;;;;;;;5.12;100.00;99025.44;5068313;28;20057;-84
2022/02/02 07:09:27;;;;;;;18.73;3.67;;;;;;;5.10;100.00;98997.78;5067969;28;20550;-84
2022/02/02 07:12:08;;;;;;;17.88;3.83;;;;;;;5.23;100.00;99017.09;5067856;28;20053;-83
2022/02/02 07:14:53;;;;;;;14.80;2.78;;;;;;;5.34;100.00;99034.03;5052810;28;20050;-85
2022/02/02 07:17:36;;;;;;;11.57;2.67;;;;;;;5.36;100.00;99040.13;5051664;28;20048;-84
2022/02/02 07:20:12;;;;;;;19.92;3.60;;;;;;;5.34;100.00;99028.66;5066221;28;20055;-84
2022/02/02 07:23:13;;;;;;;20.90;3.53;;;;;;;5.27;100.00;99042.75;5067747;28;20083;-84
2022/02/02 07:28:31;;;;;;;19.52;2.60;;;;;;;5.42;100.00;99069.16;5047866;28;20059;-84
2022/02/02 07:31:09;;;;;;;14.13;3.00;;;;;;;5.25;100.00;99039.34;5052098;28;20048;-84
2022/02/02 07:33:41;;;;;;;22.45;2.80;;;;;;;5.36;100.00;99048.22;5065773;28;20147;-84
2022/02/02 07:36:17;;;;;;;15.60;3.90;;;;;;;5.37;100.00;99045.34;5066754;28;20063;-83
2022/02/02 07:38:54;;;;;;;14.85;3.40;;;;;;;5.48;100.00;99052.38;5066177;28;20057;-84
2022/02/02 07:41:27;;;;;;;12.63;2.90;;;;;;;5.45;100.00;99039.19;5067640;28;20045;-84
2022/02/02 07:44:02;;;;;;;13.00;2.85;;;;;;;5.41;100.00;99041.34;5067010;28;20049;-84
2022/02/02 07:46:29;;;;;;;12.63;2.65;;;;;;;5.49;100.00;99054.94;5067462;28;20147;-84
2022/02/02 07:48:57;;;;;;;14.68;3.30;;;;;;;5.52;100.00;99067.22;5065219;28;20077;-84
2022/02/02 07:51:27;;;;;;;19.85;2.60;;;;;;;5.53;100.00;99060.84;5066918;28;20041;-84
2022/02/02 07:53:58;;;;;;;19.70;3.17;;;;;;;5.62;100.00;99068.00;5066450;28;20343;-84
2022/02/02 07:56:30;;;;;;;21.40;4.45;;;;;;;5.57;100.00;99050.59;5066938;28;20061;-84
2022/02/02 07:59:14;;;;;;;13.95;2.88;;;;;;;5.66;100.00;99088.28;5066351;28;20488;-84
2022/02/02 08:01:42;;;;;;;17.75;3.90;;;;;;;5.53;100.00;99085.13;5066521;28;20051;-84
2022/02/02 08:04:08;;;;;;;17.73;3.58;;;;;;;5.52;100.00;99080.72;5065276;28;20045;-84
2022/02/02 08:06:38;;;;;;;16.27;3.55;;;;;;;5.53;100.00;99076.19;5056154;28;20079;-84
2022/02/02 08:09:05;;;;;;;11.75;2.83;;;;;;;5.64;100.00;99101.03;5053781;28;20053;-84
2022/02/02 08:11:34;;;;;;;13.18;3.45;;;;;;;5.60;100.00;99106.91;5053424;28;20045;-84
2022/02/02 08:14:03;;;;;;;17.03;3.53;;;;;;;5.54;100.00;99086.81;5053392;28;20049;-84
2022/02/02 08:16:31;;;;;;;16.10;2.85;;;;;;;5.67;100.00;99108.00;5053476;28;20053;-84
2022/02/02 08:18:58;;;;;;;15.75;3.70;;;;;;;5.66;100.00;99112.53;5053033;28;20052;-84
2022/02/02 08:21:25;;;;;;;16.08;3.13;;;;;;;5.61;100.00;99093.25;5051935;28;20124;-84
2022/02/02 08:23:51;;;;;;;18.30;3.25;;;;;;;5.63;100.00;99109.28;5052766;28;20333;-84
2022/02/02 08:26:18;;;;;;;26.88;4.15;;;;;;;5.70;100.00;99123.84;5053274;28;20057;-84
2022/02/02 08:28:49;;;;;;;17.55;3.10;;;;;;;5.57;100.00;99094.59;5053141;28;20072;-84
2022/02/02 08:31:17;;;;;;;15.05;2.97;;;;;;;5.60;100.00;99105.06;5053307;28;20136;-84
2022/02/02 08:33:48;;;;;;;16.02;2.70;;;;;;;5.68;100.00;99105.13;5053081;28;20052;-84
2022/02/02 08:36:18;;;;;;;24.60;3.63;;;;;;;5.70;100.00;99121.16;5051853;28;20491;-84
2022/02/02 08:38:54;;;;;;;17.10;3.15;;;;;;;5.74;100.00;99124.41;5052440;28;20403;-85
2022/02/02 08:41:27;;;;;;;17.92;3.28;;;;;;;5.73;100.00;99111.91;5053266;28;20056;-85
2022/02/02 08:43:59;;;;;;;16.85;2.95;;;;;;;5.74;100.00;99108.22;5050841;28;20067;-84
2022/02/02 08:46:32;;;;;;;20.88;3.35;;;;;;;5.80;100.00;99126.50;5049676;28;20053;-84
2022/02/02 08:48:59;;;;;;;16.63;3.20;;;;;;;5.76;100.00;99117.84;5052939;28;20487;-84
2022/02/02 08:51:30;;;;;;;13.73;3.17;;;;;;;5.88;100.00;99133.81;5052935;28;20048;-84
2022/02/02 08:54:07;;;;;;;14.23;2.92;;;;;;;5.95;100.00;99141.13;5052439;28;20059;-85
2022/02/02 08:59:22;;;;;;;20.23;3.33;;;;;;;5.96;100.00;99144.66;5051082;28;20049;-84
2022/02/02 09:01:53;;;;;;;15.32;4.22;;;;;;;5.94;100.00;99150.22;5052598;28;20045;-84
2022/02/02 09:07:04;;;;;;;14.75;3.28;;;;;;;5.81;100.00;99142.53;5053661;28;20056;-84
2022/02/02 09:09:50;;;;;;;16.75;2.85;;;;;;;5.92;100.00;99146.00;5053759;28;20132;-84
2022/02/02 09:23:34;;;;;;;10.18;2.95;;;;;;;6.05;100.00;99151.84;4991558;28;20177;-84
2022/02/02 09:31:37;;;;;;;20.30;3.47;;;;;;;6.16;100.00;99181.31;5053392;28;20056;-84
2022/02/02 09:34:06;;;;;;;20.67;3.92;;;;;;;6.18;100.00;99186.53;5050308;28;20449;-84
2022/02/02 09:36:36;;;;;;;17.13;3.53;;;;;;;6.20;100.00;99185.41;5052534;28;20591;-83
2022/02/02 09:39:09;;;;;;;14.55;2.75;;;;;;;6.26;100.00;99183.91;5053157;28;20455;-85
2022/02/02 09:41:45;;;;;;;23.00;5.22;;;;;;;6.20;100.00;99177.28;5033467;28;20123;-85
2022/02/02 09:44:15;;;;;;;13.57;2.97;;;;;;;6.26;100.00;99180.34;5033092;28;20053;-84
2022/02/02 09:46:51;;;;;;;16.42;3.20;;;;;;;6.25;100.00;99194.84;5033140;28;20056;-85
2022/02/02 09:49:25;;;;;;;18.27;2.90;;;;;;;6.33;100.00;99193.06;5033184;28;20504;-84
2022/02/02 09:51:59;;;;;;;10.82;4.03;;;;;;;6.47;100.00;99207.00;5047838;28;20057;-84
2022/02/02 09:54:30;;;;;;;15.57;3.10;;;;;;;6.49;100.00;99205.03;5052464;28;20045;-83
2022/02/02 09:59:55;;;;;;;11.27;2.03;;;;;;;6.40;100.00;99200.53;5043188;28;20524;-83
2022/02/02 10:02:48;;;;;;;17.70;3.05;;;;;;;6.48;100.00;99224.91;5051633;28;20095;-83
2022/02/02 10:05:29;;;;;;;17.80;2.90;;;;;;;6.35;100.00;99209.97;5032423;28;20053;-84
2022/02/02 10:08:47;;;;;;;24.20;3.17;;;;;;;6.43;100.00;99217.28;5032809;28;20046;-84
2022/02/02 10:14:39;;;;;;;14.27;2.87;;;;;;;6.45;100.00;99219.84;5040880;28;20045;-83
2022/02/02 10:17:11;;;;;;;36.17;4.60;;;;;;;6.47;100.00;99209.72;5052366;28;20045;-84
2022/02/02 10:19:38;;;;;;;22.15;3.92;;;;;;;6.45;100.00;99220.66;5052834;28;20068;-84
2022/02/02 10:22:22;;;;;;;15.07;2.95;;;;;;;6.47;100.00;99215.94;5052652;28;20045;-84
2022/02/02 10:24:52;;;;;;;17.70;3.30;;;;;;;6.50;100.00;99220.19;5051159;28;20068;-84
2022/02/02 10:27:25;;;;;;;22.60;3.40;;;;;;;6.46;100.00;99224.22;5051808;28;20499;-84
2022/02/02 10:29:53;;;;;;;16.67;3.15;;;;;;;6.58;100.00;99233.78;5052090;28;20048;-83
2022/02/02 10:32:38;;;;;;;17.60;3.35;;;;;;;6.63;100.00;99223.34;5052341;28;20110;-83
2022/02/02 10:35:07;;;;;;;15.25;2.97;;;;;;;6.59;100.00;99235.47;5051078;28;20132;-85
2022/02/02 10:37:37;;;;;;;15.73;2.70;;;;;;;6.64;100.00;99241.25;5052100;28;20076;-84
2022/02/02 10:40:06;;;;;;;15.15;3.30;;;;;;;6.64;100.00;99249.34;5052023;28;20528;-84
2022/02/02 10:42:38;;;;;;;20.77;3.45;;;;;;;6.57;100.00;99242.03;5051806;28;20503;-84
2022/02/02 10:45:22;;;;;;;14.32;3.47;;;;;;;6.60;97.72;99245.25;5051825;28;20048;-84
2022/02/02 10:47:57;;;;;;;17.90;3.22;;;;;;;6.56;99.33;99230.38;5052197;28;20053;-84
2022/02/02 10:50:30;;;;;;;16.73;2.83;;;;;;;6.63;100.00;99236.84;5051524;28;20484;-84
2022/02/02 10:56:05;;;;;;;16.77;2.97;;;;;;;6.74;98.82;99230.31;5050730;28;20060;-84
2022/02/02 10:59:05;;;;;;;15.90;3.38;;;;;;;6.89;98.94;99242.28;5050559;28;20480;-84
2022/02/02 11:01:36;;;;;;;16.35;3.50;;;;;;;6.90;98.83;99224.19;5048844;28;20056;-84
2022/02/02 11:06:47;;;;;;;20.67;4.38;;;;;;;7.16;94.63;99218.75;5050543;28;20051;-84
2022/02/02 11:09:18;;;;;;;23.05;3.13;;;;;;;7.13;95.15;99216.38;5050397;28;20378;-84
2022/02/02 11:11:47;;;;;;;17.05;3.58;;;;;;;7.28;93.27;99227.41;5050814;28;20071;-84
2022/02/02 11:14:41;;;;;;;15.35;2.90;;;;;;;7.18;93.30;99213.19;5049984;28;20102;-84
2022/02/02 11:17:20;;;;;;;19.55;4.18;;;;;;;7.28;92.02;99232.00;5049186;28;20492;-85
2022/02/02 11:19:51;;;;;;;17.40;3.53;;;;;;;7.22;92.49;99220.78;5050325;28;20051;-84
2022/02/02 11:22:32;;;;;;;11.93;3.08;;;;;;;7.18;94.23;99213.19;5050412;28;20069;-84
2022/02/02 11:25:37;;;;;;;11.13;2.55;;;;;;;7.13;94.81;99229.88;5049916;28;20095;-84
2022/02/02 11:28:29;;;;;;;8.95;2.38;;;;;;;7.05;95.62;99221.75;5048950;28;20049;-84
2022/02/02 11:31:06;;;;;;;16.30;2.90;;;;;;;7.09;95.03;99248.28;5050415;28;20068;-85
2022/02/02 11:33:51;;;;;;;17.65;3.22;;;;;;;7.21;96.22;99250.69;5048397;28;20136;-84
2022/02/02 11:36:28;;;;;;;15.98;2.95;;;;;;;7.08;93.65;99249.28;5049751;28;20135;-84
2022/02/02 11:38:56;;;;;;;14.35;3.30;;;;;;;7.09;91.10;99248.28;5050369;28;20049;-84
2022/02/02 11:41:53;;;;;;;16.20;3.53;;;;;;;7.07;91.82;99247.59;5051818;28;20143;-84
2022/02/02 11:44:41;;;;;;;18.10;3.58;;;;;;;7.11;89.48;99258.94;5054212;28;20053;-84
2022/02/02 11:47:21;;;;;;;14.80;2.97;;;;;;;7.10;89.22;99251.84;5055971;28;20048;-84
2022/02/02 11:49:52;;;;;;;28.25;3.17;;;;;;;7.09;89.16;99229.38;5052698;28;20048;-84
2022/02/02 11:52:40;;;;;;;11.07;2.17;;;;;;;7.13;87.98;99238.00;5053593;28;20049;-84
2022/02/02 11:55:23;;;;;;;11.23;2.88;;;;;;;7.15;86.10;99252.22;5053405;28;20091;-85
2022/02/02 11:57:57;;;;;;;15.10;2.97;;;;;;;7.09;87.75;99248.28;5053873;28;20122;-84
2022/02/02 12:00:32;;;;;;;18.73;1.88;;;;;;;7.19;87.60;99256.28;5053803;28;20061;-84
2022/02/02 12:06:04;;;;;;;18.17;2.95;;;;;;;7.28;87.83;99250.91;5052009;28;20117;-84
2022/02/02 12:08:44;;;;;;;9.27;2.15;;;;;;;7.35;88.51;99269.03;5039404;28;20045;-85
2022/02/02 12:20:14;;;;;;;12.75;2.42;;;;;;;7.39;87.49;99265.00;5053382;28;20106;-84
2022/02/02 12:35:56;;;;;;;8.40;2.58;;;;;;;7.38;87.60;99287.66;5047557;28;20060;-83
2022/02/02 12:56:25;;;;;;;11.73;2.17;;;;;;;8.18;77.42;99286.41;5052526;28;20407;-84
2022/02/02 12:59:12;;;;;;;9.43;2.22;;;;;;;8.12;74.55;99289.78;5054939;28;20062;-84
2022/02/02 13:01:39;;;;;;;14.77;2.70;;;;;;;7.89;74.83;99274.16;5052573;28;20049;-84
2022/02/02 13:04:09;;;;;;;13.35;2.85;;;;;;;7.93;76.38;99290.91;5052276;28;20049;-83
2022/02/02 13:06:40;;;;;;;14.63;2.38;;;;;;;7.90;76.30;99316.47;5051233;28;20048;-84
2022/02/02 13:09:07;;;;;;;8.57;2.15;;;;;;;7.73;76.17;99303.88;5052395;28;20057;-84
2022/02/02 13:11:37;;;;;;;11.60;1.77;;;;;;;7.73;74.95;99320.94;5049143;28;20045;-84
2022/02/02 13:14:11;;;;;;;19.95;2.78;;;;;;;7.67;77.64;99320.75;5046079;28;20203;-84
2022/02/02 13:16:38;;;;;;;11.55;2.30;;;;;;;7.75;75.39;99350.56;5051757;28;20103;-84
2022/02/02 13:19:17;;;;;;;15.05;2.90;;;;;;;7.62;76.76;99338.31;5052227;28;20468;-84
2022/02/02 13:21:51;;;;;;;9.43;2.23;;;;;;;7.75;77.28;99335.19;5052278;28;20045;-84
2022/02/02 13:24:24;;;;;;;10.25;2.58;;;;;;;7.94;74.09;99338.63;5051907;28;20741;-83
2022/02/02 13:27:03;;;;;;;12.27;1.77;;;;;;;8.01;75.67;99334.25;5052269;28;20067;-84
2022/02/02 13:29:37;;;;;;;10.80;2.50;;;;;;;8.17;72.11;99340.72;5050434;28;20063;-84
2022/02/02 13:32:10;;;;;;;14.00;2.55;;;;;;;8.19;73.02;99339.56;5050897;28;20072;-84
2022/02/02 13:34:46;;;;;;;15.40;2.55;;;;;;;8.37;72.60;99343.97;5051551;28;20049;-83
2022/02/02 13:37:38;;;;;;;6.15;2.10;;;;;;;8.25;72.79;99338.03;5051427;28;20056;-84
2022/02/02 13:46:11;;;;;;;11.48;2.42;;;;;;;8.11;71.88;99378.31;5044163;28;20401;-83
2022/02/02 13:51:50;;;;;;;15.93;3.30;;;;;;;8.02;75.23;99370.28;5051139;28;20399;-83
2022/02/02 13:54:35;;;;;;;17.88;3.30;;;;;;;8.04;74.95;99369.13;5051142;28;20052;-83
2022/02/02 13:57:33;;;;;;;20.30;2.72;;;;;;;7.97;75.63;99385.16;5051211;28;20049;-83
2022/02/02 14:05:53;;;;;;;16.25;2.85;;;;;;;7.71;80.17;99422.28;5048043;28;20079;-84
2022/02/02 14:31:13;;;;;;;16.95;3.35;;;;;;;7.20;90.89;99408.56;5050529;28;20175;-83
2022/02/02 14:33:42;;;;;;;18.73;3.08;;;;;;;7.07;91.00;99392.72;5033613;28;20040;-83
2022/02/02 14:36:12;;;;;;;14.50;3.45;;;;;;;7.13;91.99;99402.91;5050556;28;20132;-83
2022/02/02 14:38:46;;;;;;;17.40;4.10;;;;;;;7.10;91.78;99422.16;5050963;28;20045;-83
2022/02/02 14:41:20;;;;;;;13.05;2.72;;;;;;;7.03;92.22;99413.84;5051150;28;20794;-83
2022/02/02 14:43:55;;;;;;;14.23;2.38;;;;;;;7.04;92.29;99410.09;5049008;28;20052;-83
2022/02/02 14:46:28;;;;;;;17.20;4.57;;;;;;;6.99;94.07;99395.38;5050314;28;20048;-84
2022/02/02 14:49:00;;;;;;;16.30;2.97;;;;;;;7.13;93.02;99411.03;5050691;28;20056;-83
2022/02/02 14:51:37;;;;;;;18.10;3.33;;;;;;;7.16;93.79;99426.09;5050555;28;20068;-83
2022/02/02 14:54:12;;;;;;;13.00;2.75;;;;;;;7.24;92.62;99407.22;5050388;28;20385;-84
2022/02/02 15:05:38;;;;;;;13.00;3.13;;;;;;;7.72;90.95;99432.94;5031693;28;20076;-84
2022/02/02 15:27:50;;;;;;;12.68;3.03;;;;;;;7.09;99.93;99463.69;5053244;28;20045;-84
2022/02/02 15:30:31;;;;;;;16.20;2.85;;;;;;;7.06;100.00;99466.72;5054966;28;20049;-85
2022/02/02 15:33:05;;;;;;;18.17;2.92;;;;;;;7.00;100.00;99480.84;5053687;28;20049;-84
2022/02/02 15:35:41;;;;;;;20.65;3.53;;;;;;;6.96;100.00;99482.19;5052884;28;20374;-85
2022/02/02 15:38:17;;;;;;;11.23;2.85;;;;;;;6.88;100.00;99475.69;5051370;28;20053;-85
2022/02/02 15:40:50;;;;;;;23.63;4.82;;;;;;;6.93;100.00;99486.03;5054352;28;20164;-84
2022/02/02 15:43:33;;;;;;;12.23;2.85;;;;;;;6.84;100.00;99482.41;5052693;28;20041;-84
2022/02/02 16:03:08;;;;;;;13.90;3.33;;;;;;;6.25;100.00;99481.91;5051480;28;19923;-84
2022/02/02 16:05:43;;;;;;;9.93;2.85;;;;;;;6.15;100.00;99479.22;5048810;28;20148;-84
2022/02/02 16:08:12;;;;;;;10.18;2.38;;;;;;;6.17;100.00;99476.38;5053779;28;20127;-84
2022/02/02 16:11:00;;;;;;;10.52;2.55;;;;;;;6.08;100.00;99488.06;5052027;28;20061;-84
2022/02/02 16:13:31;;;;;;;8.63;2.17;;;;;;;6.04;100.00;99492.94;5052111;28;20102;-84
2022/02/02 16:16:10;;;;;;;7.65;2.42;;;;;;;6.01;100.00;99490.53;5050519;28;20044;-84
2022/02/02 16:18:44;;;;;;;;;;;;;;;5.97;100.00;99499.91;5047175;28;20049;-84
2022/02/02 16:32:33;;;;;;;5.53;2.38;;;;;;;5.72;100.00;99504.06;5049602;28;20128;-84
2022/02/02 16:35:28;;;;;;;10.23;2.53;;;;;;;5.74;100.00;99513.72;5050506;28;20115;-83
2022/02/02 16:37:58;;;;;;;12.88;3.17;;;;;;;5.58;100.00;99498.13;5051759;28;20047;-84
2022/02/02 16:40:31;;;;;;;12.48;2.88;;;;;;;5.67;100.00;99518.84;5052259;28;20040;-85
2022/02/02 16:43:13;;;;;;;8.57;2.70;;;;;;;5.63;100.00;99527.34;5050218;28;20049;-84
2022/02/02 16:45:41;;;;;;;14.27;3.65;;;;;;;5.67;100.00;99529.66;5048040;28;20110;-84
2022/02/02 16:48:09;;;;;;;8.93;2.92;;;;;;;5.66;100.00;99540.53;5052280;28;20063;-84
2022/02/02 16:50:39;;;;;;;6.72;2.67;;;;;;;5.65;100.00;99528.06;5051566;28;20060;-85
2022/02/02 16:53:22;;;;;;;8.52;2.85;;;;;;;5.75;100.00;99541.53;5051814;28;20053;-84
2022/02/02 16:55:56;;;;;;;8.65;2.80;;;;;;;5.58;100.00;99522.38;5049082;28;20129;-84
2022/02/02 17:31:42;;;;;;;6.07;2.90;;;;;;;5.61;100.00;99561.72;5042040;28;20060;-84
2022/02/02 17:34:22;;;;;;;7.18;3.17;;;;;;;5.64;100.00;99573.06;5052676;28;20049;-85
2022/02/02 17:36:59;;;;;;;8.68;2.92;;;;;;;5.65;100.00;99553.19;5051985;28;20090;-85
2022/02/02 17:39:39;;;;;;;5.18;3.05;;;;;;;5.70;100.00;99578.91;5051495;28;20840;-85
2022/02/02 17:45:08;;;;;;;5.93;2.65;;;;;;;5.55;100.00;99576.63;5025146;28;20127;-84
2022/02/02 18:12:53;;;;;;;7.50;3.45;;;;;;;5.43;100.00;99584.00;5050585;28;20523;-85
2022/02/02 18:21:04;;;;;;;7.82;3.22;;;;;;;5.21;100.00;99573.47;5032773;28;20054;-85
2022/02/02 18:23:59;;;;;;;12.93;4.00;;;;;;;5.32;100.00;99593.09;5031178;28;20064;-85
2022/02/02 18:26:37;;;;;;;7.13;3.50;;;;;;;5.25;100.00;99588.41;5030931;28;20053;-85
2022/02/02 18:29:30;;;;;;;9.00;4.28;;;;;;;5.30;100.00;99597.78;5034058;28;20056;-85
2022/02/02 18:32:19;;;;;;;11.38;4.43;;;;;;;5.23;100.00;99598.47;5049379;28;20076;-85
2022/02/02 18:34:50;;;;;;;15.85;5.95;;;;;;;5.23;100.00;99598.47;5050084;28;20150;-85
2022/02/02 18:43:28;;;;;;;7.47;3.60;;;;;;;5.16;100.00;99608.09;5050901;28;20121;-85
2022/02/02 18:46:25;;;;;;;6.35;3.92;;;;;;;5.26;100.00;99620.59;5046240;28;20049;-85
2022/02/02 18:48:59;;;;;;;11.73;4.05;;;;;;;5.21;100.00;99624.69;5036034;28;20064;-81
2022/02/02 18:54:31;;;;;;;11.25;5.20;;;;;;;5.21;100.00;99625.56;5049650;28;20558;-85
2022/02/02 18:57:13;;;;;;;8.52;4.30;;;;;;;5.12;100.00;99623.72;5050336;28;20049;-85
2022/02/02 19:02:43;;;;;;;8.00;3.58;;;;;;;4.84;100.00;99625.34;5047521;28;20115;-85
2022/02/02 19:05:27;;;;;;;12.93;4.15;;;;;;;4.82;100.00;99644.34;5049377;28;20048;-85
2022/02/02 19:08:08;;;;;;;7.85;3.67;;;;;;;4.81;100.00;99639.91;5050479;28;20103;-85
2022/02/02 20:01:40;;;;;;;12.57;4.65;;;;;;;3.74;100.00;99667.06;5042472;28;20396;-85
2022/02/02 20:03:25;;;;;;;11.70;5.18;;;;;;;3.47;100.00;99654.09;5050945;28;20052;-84
2022/02/02 20:06:04;;;;;;;11.05;4.50;;;;;;;3.51;100.00;99674.38;5052212;28;20511;-85
2022/02/02 20:08:41;;;;;;;7.75;5.15;;;;;;;3.50;100.00;99678.88;5053441;28;20053;-85
2022/02/02 20:11:16;;;;;;;10.15;5.22;;;;;;;3.49;100.00;99682.56;5051407;28;20377;-85
2022/02/02 20:13:46;;;;;;;9.38;5.15;;;;;;;3.45;100.00;99681.09;5052107;28;20106;-85
2022/02/02 20:16:13;;;;;;;11.35;5.38;;;;;;;3.47;100.00;99662.16;5051206;28;20177;-85
2022/02/02 20:18:43;;;;;;;10.65;5.10;;;;;;;3.76;100.00;99685.75;5052501;28;20068;-85
2022/02/02 20:21:12;;;;;;;10.63;5.60;;;;;;;3.65;100.00;99689.34;5052725;28;20514;-85
2022/02/02 20:23:44;;;;;;;8.45;5.03;;;;;;;3.36;100.00;99674.63;5052565;28;20369;-85
2022/02/02 20:26:14;;;;;;;11.23;5.28;;;;;;;3.27;100.00;99690.69;5051775;28;20551;-85
2022/02/02 20:28:43;;;;;;;7.57;4.45;;;;;;;3.15;100.00;99679.09;5051302;28;20385;-85
2022/02/02 20:31:10;;;;;;;9.63;5.40;;;;;;;3.15;100.00;99696.06;5050908;28;20045;-85
2022/02/02 20:33:37;;;;;;;11.27;5.82;;;;;;;3.13;100.00;99687.28;5051888;28;20041;-85
2022/02/02 20:36:04;;;;;;;10.75;5.15;;;;;;;3.06;100.00;99683.38;5051031;28;20110;-85
2022/02/02 20:38:34;;;;;;;10.70;4.90;;;;;;;3.08;100.00;99676.03;5051810;28;20553;-85
2022/02/02 20:41:02;;;;;;;;;;;;;;;3.12;100.00;99682.03;5052396;28;20140;-85
2022/02/02 20:43:33;;;;;;;;;;;;;;;3.11;100.00;99681.16;5052314;28;19925;-85
2022/02/02 20:46:22;;;;;;;;;;;;;;;3.08;100.00;99680.56;5050704;28;19960;-85
